Grand Pass, Missouri
Current Conditions -  °F | °C
As of 1:35 PM on Sunday 23 Nov 2014 (Local Time) from KMHL Reporting Station
Haze Haze  
Wind Chill: 57°   Ceiling: 600
Heat Index: 57°   Visibility: 1.5mi
Dew Point: 55°   Wind: 0mph
Humidity: 94%   Direction: NA
Pressure: 29.41"   Gusts: NA
Location:  39.2052°N, 93.3822°W
Report Text: KMHL 231935Z AUTO 00000KT 1 1/2SM BR OVC006 14/13 A2941 RMK AO2
Loading
Personal Weather Stations






























Interactive Weather Map New forecast layout! Learn more

10-Day Weather Forecast

Advertisements
Track Severe Weather on mobile